sensor_id;sensor_type;location;lat;lon;timestamp;temperature;humidity
62904;DHT22;49000;50.698;13.322;2022-08-21T00:02:14;16.90;99.90
62904;DHT22;49000;50.698;13.322;2022-08-21T00:04:40;16.90;99.90
62904;DHT22;49000;50.698;13.322;2022-08-21T00:07:06;16.90;99.90
62904;DHT22;49000;50.698;13.322;2022-08-21T00:09:31;16.90;99.90
62904;DHT22;49000;50.698;13.322;2022-08-21T00:11:57;16.90;99.90
62904;DHT22;49000;50.698;13.322;2022-08-21T00:14:22;16.80;99.90
62904;DHT22;49000;50.698;13.322;2022-08-21T00:16:47;16.90;99.90
62904;DHT22;49000;50.698;13.322;2022-08-21T00:19:13;16.70;99.90
62904;DHT22;49000;50.698;13.322;2022-08-21T00:21:39;16.70;99.90
62904;DHT22;49000;50.698;13.322;2022-08-21T00:24:05;16.60;99.90
62904;DHT22;49000;50.698;13.322;2022-08-21T00:26:30;16.70;99.90
62904;DHT22;49000;50.698;13.322;2022-08-21T00:28:55;16.60;99.90
62904;DHT22;49000;50.698;13.322;2022-08-21T00:31:21;16.70;99.90
62904;DHT22;49000;50.698;13.322;2022-08-21T00:33:46;16.70;99.90
62904;DHT22;49000;50.698;13.322;2022-08-21T00:36:12;16.60;99.90
62904;DHT22;49000;50.698;13.322;2022-08-21T00:38:38;16.70;99.90
62904;DHT22;49000;50.698;13.322;2022-08-21T00:41:06;16.70;99.90
62904;DHT22;49000;50.698;13.322;2022-08-21T00:43:34;16.70;99.90
62904;DHT22;49000;50.698;13.322;2022-08-21T00:46:01;16.70;99.90
62904;DHT22;49000;50.698;13.322;2022-08-21T00:48:27;16.70;99.90
62904;DHT22;49000;50.698;13.322;2022-08-21T00:50:57;16.70;99.90
62904;DHT22;49000;50.698;13.322;2022-08-21T00:53:24;16.70;99.90
62904;DHT22;49000;50.698;13.322;2022-08-21T00:55:51;16.70;99.90
62904;DHT22;49000;50.698;13.322;2022-08-21T00:58:18;16.70;99.90
62904;DHT22;49000;50.698;13.322;2022-08-21T01:00:46;16.70;99.90
62904;DHT22;49000;50.698;13.322;2022-08-21T01:03:18;16.70;99.90
62904;DHT22;49000;50.698;13.322;2022-08-21T01:05:44;16.80;99.90
62904;DHT22;49000;50.698;13.322;2022-08-21T01:08:11;16.80;99.90
62904;DHT22;49000;50.698;13.322;2022-08-21T01:10:38;16.70;99.90
62904;DHT22;49000;50.698;13.322;2022-08-21T01:13:05;16.70;99.90
62904;DHT22;49000;50.698;13.322;2022-08-21T01:15:37;16.70;99.90
62904;DHT22;49000;50.698;13.322;2022-08-21T01:18:05;16.70;99.90
62904;DHT22;49000;50.698;13.322;2022-08-21T01:20:31;16.70;99.90
62904;DHT22;49000;50.698;13.322;2022-08-21T01:22:57;16.70;99.90
62904;DHT22;49000;50.698;13.322;2022-08-21T01:25:23;16.70;99.90
62904;DHT22;49000;50.698;13.322;2022-08-21T01:27:49;16.70;99.90
62904;DHT22;49000;50.698;13.322;2022-08-21T01:30:20;16.80;99.90
62904;DHT22;49000;50.698;13.322;2022-08-21T01:32:47;16.70;99.90
62904;DHT22;49000;50.698;13.322;2022-08-21T01:35:14;16.70;99.90
62904;DHT22;49000;50.698;13.322;2022-08-21T01:37:40;16.70;99.90
62904;DHT22;49000;50.698;13.322;2022-08-21T01:40:07;16.70;99.90
62904;DHT22;49000;50.698;13.322;2022-08-21T01:42:33;16.70;99.90
62904;DHT22;49000;50.698;13.322;2022-08-21T01:44:59;16.70;99.90
62904;DHT22;49000;50.698;13.322;2022-08-21T01:47:24;16.60;99.90
62904;DHT22;49000;50.698;13.322;2022-08-21T01:49:50;16.60;99.90
62904;DHT22;49000;50.698;13.322;2022-08-21T01:52:16;16.60;99.90
62904;DHT22;49000;50.698;13.322;2022-08-21T01:54:41;16.50;99.90
62904;DHT22;49000;50.698;13.322;2022-08-21T01:57:08;16.50;99.90
62904;DHT22;49000;50.698;13.322;2022-08-21T01:59:34;16.50;99.90
62904;DHT22;49000;50.698;13.322;2022-08-21T02:01:59;16.50;99.90
62904;DHT22;49000;50.698;13.322;2022-08-21T02:04:26;16.50;99.90
62904;DHT22;49000;50.698;13.322;2022-08-21T02:06:51;16.50;99.90
62904;DHT22;49000;50.698;13.322;2022-08-21T02:09:18;16.50;99.90
62904;DHT22;49000;50.698;13.322;2022-08-21T02:11:44;16.50;99.90
62904;DHT22;49000;50.698;13.322;2022-08-21T02:14:11;16.40;99.90
62904;DHT22;49000;50.698;13.322;2022-08-21T02:16:38;16.50;99.90
62904;DHT22;49000;50.698;13.322;2022-08-21T02:19:04;16.50;99.90
62904;DHT22;49000;50.698;13.322;2022-08-21T02:21:30;16.50;99.90
62904;DHT22;49000;50.698;13.322;2022-08-21T02:23:56;16.50;99.90
62904;DHT22;49000;50.698;13.322;2022-08-21T02:26:21;16.50;99.90
62904;DHT22;49000;50.698;13.322;2022-08-21T02:28:47;16.50;99.90
62904;DHT22;49000;50.698;13.322;2022-08-21T02:31:13;16.50;99.90
62904;DHT22;49000;50.698;13.322;2022-08-21T02:33:40;16.50;99.90
62904;DHT22;49000;50.698;13.322;2022-08-21T02:36:07;16.60;99.90
62904;DHT22;49000;50.698;13.322;2022-08-21T02:38:34;16.60;99.90
62904;DHT22;49000;50.698;13.322;2022-08-21T02:41:03;16.60;99.90
62904;DHT22;49000;50.698;13.322;2022-08-21T02:43:29;16.50;99.90
62904;DHT22;49000;50.698;13.322;2022-08-21T02:45:56;16.60;99.90
62904;DHT22;49000;50.698;13.322;2022-08-21T02:48:26;16.50;99.90
62904;DHT22;49000;50.698;13.322;2022-08-21T02:50:56;16.50;99.90
62904;DHT22;49000;50.698;13.322;2022-08-21T02:53:22;16.50;99.90
62904;DHT22;49000;50.698;13.322;2022-08-21T02:55:50;16.50;99.90
62904;DHT22;49000;50.698;13.322;2022-08-21T02:58:19;16.50;99.90
62904;DHT22;49000;50.698;13.322;2022-08-21T03:00:45;16.50;99.90
62904;DHT22;49000;50.698;13.322;2022-08-21T03:03:11;16.50;99.90
62904;DHT22;49000;50.698;13.322;2022-08-21T03:05:38;16.50;99.90
62904;DHT22;49000;50.698;13.322;2022-08-21T03:08:06;16.60;99.90
62904;DHT22;49000;50.698;13.322;2022-08-21T03:10:40;16.60;99.90
62904;DHT22;49000;50.698;13.322;2022-08-21T03:13:06;16.60;99.90
62904;DHT22;49000;50.698;13.322;2022-08-21T03:15:32;16.60;99.90
62904;DHT22;49000;50.698;13.322;2022-08-21T03:17:58;16.60;99.90
62904;DHT22;49000;50.698;13.322;2022-08-21T03:20:26;16.60;99.90
62904;DHT22;49000;50.698;13.322;2022-08-21T03:22:53;16.60;99.90
62904;DHT22;49000;50.698;13.322;2022-08-21T03:25:20;16.70;99.90
62904;DHT22;49000;50.698;13.322;2022-08-21T03:27:46;16.60;99.90
62904;DHT22;49000;50.698;13.322;2022-08-21T03:30:15;16.70;99.90
62904;DHT22;49000;50.698;13.322;2022-08-21T03:32:41;16.70;99.90
62904;DHT22;49000;50.698;13.322;2022-08-21T03:35:07;16.70;99.90
62904;DHT22;49000;50.698;13.322;2022-08-21T03:37:33;16.60;99.90
62904;DHT22;49000;50.698;13.322;2022-08-21T03:39:59;16.70;99.90
62904;DHT22;49000;50.698;13.322;2022-08-21T03:42:24;16.60;99.90
62904;DHT22;49000;50.698;13.322;2022-08-21T03:44:50;16.60;99.90
62904;DHT22;49000;50.698;13.322;2022-08-21T03:47:16;16.60;99.90
62904;DHT22;49000;50.698;13.322;2022-08-21T03:49:41;16.60;99.90
62904;DHT22;49000;50.698;13.322;2022-08-21T03:52:07;16.60;99.90
62904;DHT22;49000;50.698;13.322;2022-08-21T03:54:33;16.60;99.90
62904;DHT22;49000;50.698;13.322;2022-08-21T03:56:59;16.60;99.90
62904;DHT22;49000;50.698;13.322;2022-08-21T03:59:24;16.70;99.90
62904;DHT22;49000;50.698;13.322;2022-08-21T04:02:01;16.70;99.90
62904;DHT22;49000;50.698;13.322;2022-08-21T04:04:28;16.70;99.90
62904;DHT22;49000;50.698;13.322;2022-08-21T04:06:55;16.60;99.90
62904;DHT22;49000;50.698;13.322;2022-08-21T04:09:20;16.70;99.90
62904;DHT22;49000;50.698;13.322;2022-08-21T04:11:46;16.60;99.90
62904;DHT22;49000;50.698;13.322;2022-08-21T04:14:12;16.60;99.90
62904;DHT22;49000;50.698;13.322;2022-08-21T04:16:39;16.70;99.90
62904;DHT22;49000;50.698;13.322;2022-08-21T04:19:05;16.70;99.90
62904;DHT22;49000;50.698;13.322;2022-08-21T04:21:31;16.70;99.90
62904;DHT22;49000;50.698;13.322;2022-08-21T04:23:57;16.60;99.90
62904;DHT22;49000;50.698;13.322;2022-08-21T04:26:23;16.70;99.90
62904;DHT22;49000;50.698;13.322;2022-08-21T04:28:49;16.70;99.90
62904;DHT22;49000;50.698;13.322;2022-08-21T04:31:14;16.70;99.90
62904;DHT22;49000;50.698;13.322;2022-08-21T04:33:40;16.70;99.90
62904;DHT22;49000;50.698;13.322;2022-08-21T04:36:06;16.70;99.90
62904;DHT22;49000;50.698;13.322;2022-08-21T04:38:32;16.70;99.90
62904;DHT22;49000;50.698;13.322;2022-08-21T04:40:58;16.70;99.90
62904;DHT22;49000;50.698;13.322;2022-08-21T04:43:23;16.70;99.90
62904;DHT22;49000;50.698;13.322;2022-08-21T04:45:50;16.70;99.90
62904;DHT22;49000;50.698;13.322;2022-08-21T04:48:20;16.80;99.90
62904;DHT22;49000;50.698;13.322;2022-08-21T04:51:09;16.80;99.90
62904;DHT22;49000;50.698;13.322;2022-08-21T04:53:43;16.80;99.90
62904;DHT22;49000;50.698;13.322;2022-08-21T04:56:24;16.90;99.90
62904;DHT22;49000;50.698;13.322;2022-08-21T04:58:52;16.90;99.90
62904;DHT22;49000;50.698;13.322;2022-08-21T05:01:21;16.90;99.90
62904;DHT22;49000;50.698;13.322;2022-08-21T05:03:49;16.90;99.90
62904;DHT22;49000;50.698;13.322;2022-08-21T05:06:16;16.90;99.90
62904;DHT22;49000;50.698;13.322;2022-08-21T05:08:43;16.90;99.90
62904;DHT22;49000;50.698;13.322;2022-08-21T05:11:10;16.90;99.90
62904;DHT22;49000;50.698;13.322;2022-08-21T05:13:36;17.00;99.90
62904;DHT22;49000;50.698;13.322;2022-08-21T05:16:02;17.10;99.90
62904;DHT22;49000;50.698;13.322;2022-08-21T05:18:27;17.10;99.90
62904;DHT22;49000;50.698;13.322;2022-08-21T05:20:53;17.10;99.90
62904;DHT22;49000;50.698;13.322;2022-08-21T05:23:19;17.10;99.90
62904;DHT22;49000;50.698;13.322;2022-08-21T05:25:44;17.20;99.90
62904;DHT22;49000;50.698;13.322;2022-08-21T05:28:10;17.10;99.90
62904;DHT22;49000;50.698;13.322;2022-08-21T05:30:37;17.20;99.90
62904;DHT22;49000;50.698;13.322;2022-08-21T05:33:04;17.20;99.90
62904;DHT22;49000;50.698;13.322;2022-08-21T05:35:31;17.20;99.90
62904;DHT22;49000;50.698;13.322;2022-08-21T05:37:58;17.30;99.90
62904;DHT22;49000;50.698;13.322;2022-08-21T05:40:24;17.40;99.90
62904;DHT22;49000;50.698;13.322;2022-08-21T05:42:50;17.50;99.90
62904;DHT22;49000;50.698;13.322;2022-08-21T05:45:16;17.60;99.90
62904;DHT22;49000;50.698;13.322;2022-08-21T05:47:42;17.60;99.90
62904;DHT22;49000;50.698;13.322;2022-08-21T05:50:08;17.60;99.90
62904;DHT22;49000;50.698;13.322;2022-08-21T05:52:34;17.60;99.90
62904;DHT22;49000;50.698;13.322;2022-08-21T05:54:59;17.70;99.90
62904;DHT22;49000;50.698;13.322;2022-08-21T05:57:24;17.90;99.90
62904;DHT22;49000;50.698;13.322;2022-08-21T05:59:50;17.80;99.90
62904;DHT22;49000;50.698;13.322;2022-08-21T06:02:18;18.00;99.90
62904;DHT22;49000;50.698;13.322;2022-08-21T06:04:43;18.00;99.90
62904;DHT22;49000;50.698;13.322;2022-08-21T06:07:09;17.90;99.90
62904;DHT22;49000;50.698;13.322;2022-08-21T06:09:35;18.00;99.90
62904;DHT22;49000;50.698;13.322;2022-08-21T06:12:09;17.90;99.90
62904;DHT22;49000;50.698;13.322;2022-08-21T06:14:36;17.80;99.90
62904;DHT22;49000;50.698;13.322;2022-08-21T06:17:06;18.00;99.90
62904;DHT22;49000;50.698;13.322;2022-08-21T06:19:32;18.00;99.90
62904;DHT22;49000;50.698;13.322;2022-08-21T06:21:58;18.00;99.90
62904;DHT22;49000;50.698;13.322;2022-08-21T06:24:24;17.90;99.90
62904;DHT22;49000;50.698;13.322;2022-08-21T06:26:50;17.90;99.90
62904;DHT22;49000;50.698;13.322;2022-08-21T06:29:15;17.90;99.90
62904;DHT22;49000;50.698;13.322;2022-08-21T06:31:43;18.10;99.90
62904;DHT22;49000;50.698;13.322;2022-08-21T06:34:09;18.00;99.90
62904;DHT22;49000;50.698;13.322;2022-08-21T06:36:35;18.10;99.90
62904;DHT22;49000;50.698;13.322;2022-08-21T06:39:00;18.20;99.90
62904;DHT22;49000;50.698;13.322;2022-08-21T06:41:26;18.20;99.90
62904;DHT22;49000;50.698;13.322;2022-08-21T06:43:53;18.30;99.90
62904;DHT22;49000;50.698;13.322;2022-08-21T06:46:18;18.20;99.90
62904;DHT22;49000;50.698;13.322;2022-08-21T06:48:44;18.20;99.90
62904;DHT22;49000;50.698;13.322;2022-08-21T06:51:09;18.30;99.90
62904;DHT22;49000;50.698;13.322;2022-08-21T06:53:35;18.40;99.90
62904;DHT22;49000;50.698;13.322;2022-08-21T06:56:01;18.40;99.90
62904;DHT22;49000;50.698;13.322;2022-08-21T06:58:26;18.40;99.90
62904;DHT22;49000;50.698;13.322;2022-08-21T07:00:52;18.40;99.90
62904;DHT22;49000;50.698;13.322;2022-08-21T07:03:25;18.50;99.90
62904;DHT22;49000;50.698;13.322;2022-08-21T07:05:53;18.70;99.90
62904;DHT22;49000;50.698;13.322;2022-08-21T07:08:19;18.50;99.90
62904;DHT22;49000;50.698;13.322;2022-08-21T07:10:46;18.70;99.90
62904;DHT22;49000;50.698;13.322;2022-08-21T07:13:12;18.80;99.90
62904;DHT22;49000;50.698;13.322;2022-08-21T07:15:38;18.80;99.90
62904;DHT22;49000;50.698;13.322;2022-08-21T07:18:04;18.80;99.90
62904;DHT22;49000;50.698;13.322;2022-08-21T07:20:30;18.70;99.90
62904;DHT22;49000;50.698;13.322;2022-08-21T07:23:04;18.90;99.90
62904;DHT22;49000;50.698;13.322;2022-08-21T07:25:30;18.80;99.90
62904;DHT22;49000;50.698;13.322;2022-08-21T07:27:56;18.80;99.90
62904;DHT22;49000;50.698;13.322;2022-08-21T07:30:22;18.60;99.90
62904;DHT22;49000;50.698;13.322;2022-08-21T07:32:49;18.20;99.90
62904;DHT22;49000;50.698;13.322;2022-08-21T07:35:16;18.30;99.90
62904;DHT22;49000;50.698;13.322;2022-08-21T07:37:42;18.50;99.90
62904;DHT22;49000;50.698;13.322;2022-08-21T07:40:08;18.40;99.90
62904;DHT22;49000;50.698;13.322;2022-08-21T07:42:33;18.40;99.90
62904;DHT22;49000;50.698;13.322;2022-08-21T07:44:59;18.60;99.90
62904;DHT22;49000;50.698;13.322;2022-08-21T07:47:24;18.80;99.90
62904;DHT22;49000;50.698;13.322;2022-08-21T07:49:50;18.80;99.90
62904;DHT22;49000;50.698;13.322;2022-08-21T07:52:15;18.90;99.90
62904;DHT22;49000;50.698;13.322;2022-08-21T07:54:41;18.90;99.90
62904;DHT22;49000;50.698;13.322;2022-08-21T07:57:06;18.90;99.90
62904;DHT22;49000;50.698;13.322;2022-08-21T07:59:32;18.90;99.90
62904;DHT22;49000;50.698;13.322;2022-08-21T08:01:57;18.90;99.90
62904;DHT22;49000;50.698;13.322;2022-08-21T08:04:23;18.90;99.90
62904;DHT22;49000;50.698;13.322;2022-08-21T08:06:48;18.80;99.90
62904;DHT22;49000;50.698;13.322;2022-08-21T08:09:14;18.70;99.90
62904;DHT22;49000;50.698;13.322;2022-08-21T08:11:41;18.70;99.90
62904;DHT22;49000;50.698;13.322;2022-08-21T08:14:09;18.80;99.90
62904;DHT22;49000;50.698;13.322;2022-08-21T08:16:35;18.90;99.90
62904;DHT22;49000;50.698;13.322;2022-08-21T08:19:00;19.00;99.90
62904;DHT22;49000;50.698;13.322;2022-08-21T08:21:26;19.00;99.90
62904;DHT22;49000;50.698;13.322;2022-08-21T08:23:51;19.10;99.90
62904;DHT22;49000;50.698;13.322;2022-08-21T08:26:17;19.30;99.90
62904;DHT22;49000;50.698;13.322;2022-08-21T08:28:43;19.30;99.90
62904;DHT22;49000;50.698;13.322;2022-08-21T08:31:09;19.50;99.90
62904;DHT22;49000;50.698;13.322;2022-08-21T08:33:34;19.50;99.90
62904;DHT22;49000;50.698;13.322;2022-08-21T08:36:00;19.50;99.90
62904;DHT22;49000;50.698;13.322;2022-08-21T08:38:25;19.20;99.90
62904;DHT22;49000;50.698;13.322;2022-08-21T08:41:14;18.90;99.90
62904;DHT22;49000;50.698;13.322;2022-08-21T08:43:42;18.90;99.90
62904;DHT22;49000;50.698;13.322;2022-08-21T08:46:15;18.80;99.90
62904;DHT22;49000;50.698;13.322;2022-08-21T08:51:59;18.90;99.90
62904;DHT22;49000;50.698;13.322;2022-08-21T08:54:35;19.00;99.90
62904;DHT22;49000;50.698;13.322;2022-08-21T08:57:09;19.10;99.90
62904;DHT22;49000;50.698;13.322;2022-08-21T08:59:41;19.10;99.90
62904;DHT22;49000;50.698;13.322;2022-08-21T09:02:13;19.20;99.90
62904;DHT22;49000;50.698;13.322;2022-08-21T09:04:38;19.10;99.90
62904;DHT22;49000;50.698;13.322;2022-08-21T09:16:05;19.10;99.90
62904;DHT22;49000;50.698;13.322;2022-08-21T09:26:47;19.80;99.90
62904;DHT22;49000;50.698;13.322;2022-08-21T09:29:17;19.90;99.90
62904;DHT22;49000;50.698;13.322;2022-08-21T09:31:45;19.80;99.90
62904;DHT22;49000;50.698;13.322;2022-08-21T09:34:11;19.90;99.90
62904;DHT22;49000;50.698;13.322;2022-08-21T09:36:42;20.00;99.90
62904;DHT22;49000;50.698;13.322;2022-08-21T09:39:10;20.20;99.90
62904;DHT22;49000;50.698;13.322;2022-08-21T09:41:37;20.30;99.90
62904;DHT22;49000;50.698;13.322;2022-08-21T09:44:05;20.10;99.90
62904;DHT22;49000;50.698;13.322;2022-08-21T09:46:31;20.30;99.90
62904;DHT22;49000;50.698;13.322;2022-08-21T09:48:59;20.50;99.90
62904;DHT22;49000;50.698;13.322;2022-08-21T09:51:30;20.90;99.90
62904;DHT22;49000;50.698;13.322;2022-08-21T09:56:33;21.20;99.90
62904;DHT22;49000;50.698;13.322;2022-08-21T09:59:25;21.00;99.90
62904;DHT22;49000;50.698;13.322;2022-08-21T10:01:52;20.80;99.90
62904;DHT22;49000;50.698;13.322;2022-08-21T10:04:29;20.60;99.90
62904;DHT22;49000;50.698;13.322;2022-08-21T10:07:09;20.70;99.90
62904;DHT22;49000;50.698;13.322;2022-08-21T10:09:36;20.60;99.90
62904;DHT22;49000;50.698;13.322;2022-08-21T10:14:47;20.20;99.90
62904;DHT22;49000;50.698;13.322;2022-08-21T10:17:23;20.40;99.90
62904;DHT22;49000;50.698;13.322;2022-08-21T10:20:13;20.60;99.90
62904;DHT22;49000;50.698;13.322;2022-08-21T10:22:53;20.70;99.90
62904;DHT22;49000;50.698;13.322;2022-08-21T10:25:35;20.70;99.90
62904;DHT22;49000;50.698;13.322;2022-08-21T10:28:24;20.90;99.90
62904;DHT22;49000;50.698;13.322;2022-08-21T10:36:12;21.50;99.90
62904;DHT22;49000;50.698;13.322;2022-08-21T10:38:45;21.70;99.90
62904;DHT22;49000;50.698;13.322;2022-08-21T10:47:15;22.10;99.90
62904;DHT22;49000;50.698;13.322;2022-08-21T10:55:31;22.30;99.90
62904;DHT22;49000;50.698;13.322;2022-08-21T10:58:05;22.60;99.90
62904;DHT22;49000;50.698;13.322;2022-08-21T11:03:47;23.10;81.40
62904;DHT22;49000;50.698;13.322;2022-08-21T11:06:26;23.50;92.20
62904;DHT22;49000;50.698;13.322;2022-08-21T11:08:56;23.80;91.70
62904;DHT22;49000;50.698;13.322;2022-08-21T11:11:31;23.80;62.20
62904;DHT22;49000;50.698;13.322;2022-08-21T11:14:03;24.20;78.50
62904;DHT22;49000;50.698;13.322;2022-08-21T11:16:45;24.30;76.10
62904;DHT22;49000;50.698;13.322;2022-08-21T11:28:00;24.60;52.70
62904;DHT22;49000;50.698;13.322;2022-08-21T11:30:33;24.90;37.40
62904;DHT22;49000;50.698;13.322;2022-08-21T11:33:36;25.40;46.40
62904;DHT22;49000;50.698;13.322;2022-08-21T11:36:24;25.20;31.40
62904;DHT22;49000;50.698;13.322;2022-08-21T11:39:11;25.90;32.00
62904;DHT22;49000;50.698;13.322;2022-08-21T11:41:59;25.50;22.90
62904;DHT22;49000;50.698;13.322;2022-08-21T11:47:33;24.60;27.30
62904;DHT22;49000;50.698;13.322;2022-08-21T11:50:15;25.00;32.90
62904;DHT22;49000;50.698;13.322;2022-08-21T11:52:46;24.60;26.30
62904;DHT22;49000;50.698;13.322;2022-08-21T11:55:18;24.70;34.50
62904;DHT22;49000;50.698;13.322;2022-08-21T11:57:55;24.20;30.70
62904;DHT22;49000;50.698;13.322;2022-08-21T12:00:27;24.50;38.20
62904;DHT22;49000;50.698;13.322;2022-08-21T12:02:56;24.80;24.40
62904;DHT22;49000;50.698;13.322;2022-08-21T12:05:36;25.20;30.00
62904;DHT22;49000;50.698;13.322;2022-08-21T12:08:05;25.70;26.50
62904;DHT22;49000;50.698;13.322;2022-08-21T12:10:40;25.50;24.90
62904;DHT22;49000;50.698;13.322;2022-08-21T12:13:10;25.70;28.30
62904;DHT22;49000;50.698;13.322;2022-08-21T12:15:36;26.60;27.80
62904;DHT22;49000;50.698;13.322;2022-08-21T12:18:05;27.20;23.90
62904;DHT22;49000;50.698;13.322;2022-08-21T12:20:42;27.30;21.90
62904;DHT22;49000;50.698;13.322;2022-08-21T12:28:40;27.20;18.60
62904;DHT22;49000;50.698;13.322;2022-08-21T12:31:22;26.40;18.10
62904;DHT22;49000;50.698;13.322;2022-08-21T12:33:55;25.70;27.30
62904;DHT22;49000;50.698;13.322;2022-08-21T12:36:27;25.90;24.60
62904;DHT22;49000;50.698;13.322;2022-08-21T12:39:04;25.80;21.20
62904;DHT22;49000;50.698;13.322;2022-08-21T12:41:49;26.10;27.40
62904;DHT22;49000;50.698;13.322;2022-08-21T12:44:22;25.70;26.60
62904;DHT22;49000;50.698;13.322;2022-08-21T12:47:05;25.40;25.30
62904;DHT22;49000;50.698;13.322;2022-08-21T12:49:33;25.30;24.70
62904;DHT22;49000;50.698;13.322;2022-08-21T12:52:13;25.50;27.50
62904;DHT22;49000;50.698;13.322;2022-08-21T12:54:44;25.60;26.40
62904;DHT22;49000;50.698;13.322;2022-08-21T12:57:19;25.40;27.10
62904;DHT22;49000;50.698;13.322;2022-08-21T12:59:45;25.60;26.50
62904;DHT22;49000;50.698;13.322;2022-08-21T13:02:32;25.80;29.30
62904;DHT22;49000;50.698;13.322;2022-08-21T13:05:03;26.10;27.80
62904;DHT22;49000;50.698;13.322;2022-08-21T13:07:31;25.90;26.70
62904;DHT22;49000;50.698;13.322;2022-08-21T13:10:06;25.90;27.60
62904;DHT22;49000;50.698;13.322;2022-08-21T13:12:33;25.70;22.80
62904;DHT22;49000;50.698;13.322;2022-08-21T13:15:04;25.70;25.60
62904;DHT22;49000;50.698;13.322;2022-08-21T13:17:34;25.50;23.60
62904;DHT22;49000;50.698;13.322;2022-08-21T13:20:08;25.40;27.20
62904;DHT22;49000;50.698;13.322;2022-08-21T13:22:42;25.20;25.50
62904;DHT22;49000;50.698;13.322;2022-08-21T13:25:16;25.00;28.50
62904;DHT22;49000;50.698;13.322;2022-08-21T13:27:43;25.00;28.90
62904;DHT22;49000;50.698;13.322;2022-08-21T13:32:44;24.90;31.70
62904;DHT22;49000;50.698;13.322;2022-08-21T13:35:14;24.50;28.50
62904;DHT22;49000;50.698;13.322;2022-08-21T13:37:42;24.60;31.90
62904;DHT22;49000;50.698;13.322;2022-08-21T13:40:16;24.50;24.00
62904;DHT22;49000;50.698;13.322;2022-08-21T13:42:44;24.60;30.70
62904;DHT22;49000;50.698;13.322;2022-08-21T13:45:16;24.90;26.90
62904;DHT22;49000;50.698;13.322;2022-08-21T13:47:43;25.10;25.70
62904;DHT22;49000;50.698;13.322;2022-08-21T13:50:12;25.20;28.30
62904;DHT22;49000;50.698;13.322;2022-08-21T13:52:47;25.20;29.10
62904;DHT22;49000;50.698;13.322;2022-08-21T13:55:16;25.00;20.20
62904;DHT22;49000;50.698;13.322;2022-08-21T13:57:41;25.20;27.70
62904;DHT22;49000;50.698;13.322;2022-08-21T14:00:13;25.10;19.80
62904;DHT22;49000;50.698;13.322;2022-08-21T14:02:41;25.40;27.40
62904;DHT22;49000;50.698;13.322;2022-08-21T14:05:16;25.60;26.60
62904;DHT22;49000;50.698;13.322;2022-08-21T14:07:44;26.00;24.40
62904;DHT22;49000;50.698;13.322;2022-08-21T14:10:21;26.20;17.10
62904;DHT22;49000;50.698;13.322;2022-08-21T14:12:53;26.70;21.80
62904;DHT22;49000;50.698;13.322;2022-08-21T14:15:26;27.10;17.70
62904;DHT22;49000;50.698;13.322;2022-08-21T14:17:53;27.30;20.90
62904;DHT22;49000;50.698;13.322;2022-08-21T14:20:32;27.50;22.00
62904;DHT22;49000;50.698;13.322;2022-08-21T14:22:58;27.60;15.10
62904;DHT22;49000;50.698;13.322;2022-08-21T14:28:15;27.70;14.90
62904;DHT22;49000;50.698;13.322;2022-08-21T14:30:44;28.00;19.00
62904;DHT22;49000;50.698;13.322;2022-08-21T14:33:11;28.00;13.90
62904;DHT22;49000;50.698;13.322;2022-08-21T14:35:37;28.50;16.10
62904;DHT22;49000;50.698;13.322;2022-08-21T14:38:12;29.10;11.50
62904;DHT22;49000;50.698;13.322;2022-08-21T14:40:38;29.60;14.60
62904;DHT22;49000;50.698;13.322;2022-08-21T14:43:04;29.90;14.70
62904;DHT22;49000;50.698;13.322;2022-08-21T14:45:30;30.20;15.90
62904;DHT22;49000;50.698;13.322;2022-08-21T14:47:57;30.30;13.70
62904;DHT22;49000;50.698;13.322;2022-08-21T14:50:23;29.90;10.60
62904;DHT22;49000;50.698;13.322;2022-08-21T14:52:49;29.30;10.30
62904;DHT22;49000;50.698;13.322;2022-08-21T14:55:16;29.50;13.30
62904;DHT22;49000;50.698;13.322;2022-08-21T14:57:44;30.30;13.60
62904;DHT22;49000;50.698;13.322;2022-08-21T15:00:13;30.60;10.30
62904;DHT22;49000;50.698;13.322;2022-08-21T15:02:39;30.50;10.70
62904;DHT22;49000;50.698;13.322;2022-08-21T15:05:04;30.90;10.70
62904;DHT22;49000;50.698;13.322;2022-08-21T15:07:30;31.20;8.50
62904;DHT22;49000;50.698;13.322;2022-08-21T15:09:56;31.60;9.40
62904;DHT22;49000;50.698;13.322;2022-08-21T15:12:22;31.50;11.90
62904;DHT22;49000;50.698;13.322;2022-08-21T15:14:48;31.50;11.30
62904;DHT22;49000;50.698;13.322;2022-08-21T15:17:13;31.80;9.60
62904;DHT22;49000;50.698;13.322;2022-08-21T15:19:39;32.30;8.40
62904;DHT22;49000;50.698;13.322;2022-08-21T15:22:05;32.60;6.30
62904;DHT22;49000;50.698;13.322;2022-08-21T15:24:30;32.40;8.70
62904;DHT22;49000;50.698;13.322;2022-08-21T15:26:58;32.10;8.60
62904;DHT22;49000;50.698;13.322;2022-08-21T15:29:24;31.80;7.70
62904;DHT22;49000;50.698;13.322;2022-08-21T15:31:55;31.00;8.90
62904;DHT22;49000;50.698;13.322;2022-08-21T15:34:21;30.80;7.80
62904;DHT22;49000;50.698;13.322;2022-08-21T15:36:47;30.70;10.40
62904;DHT22;49000;50.698;13.322;2022-08-21T15:39:13;30.30;5.70
62904;DHT22;49000;50.698;13.322;2022-08-21T15:41:39;29.00;6.70
62904;DHT22;49000;50.698;13.322;2022-08-21T15:44:04;29.10;12.60
62904;DHT22;49000;50.698;13.322;2022-08-21T15:46:31;28.70;10.70
62904;DHT22;49000;50.698;13.322;2022-08-21T15:48:56;28.50;9.60
62904;DHT22;49000;50.698;13.322;2022-08-21T15:51:22;28.50;14.20
62904;DHT22;49000;50.698;13.322;2022-08-21T15:53:47;28.10;9.20
62904;DHT22;49000;50.698;13.322;2022-08-21T15:56:28;28.20;12.30
62904;DHT22;49000;50.698;13.322;2022-08-21T15:59:04;28.50;14.60
62904;DHT22;49000;50.698;13.322;2022-08-21T16:01:30;28.30;13.70
62904;DHT22;49000;50.698;13.322;2022-08-21T16:03:56;28.10;15.30
62904;DHT22;49000;50.698;13.322;2022-08-21T16:06:22;28.20;16.70
62904;DHT22;49000;50.698;13.322;2022-08-21T16:08:47;28.20;9.90
62904;DHT22;49000;50.698;13.322;2022-08-21T16:11:14;28.30;15.00
62904;DHT22;49000;50.698;13.322;2022-08-21T16:13:42;28.60;16.20
62904;DHT22;49000;50.698;13.322;2022-08-21T16:16:12;29.00;12.50
62904;DHT22;49000;50.698;13.322;2022-08-21T16:18:39;29.60;13.30
62904;DHT22;49000;50.698;13.322;2022-08-21T16:21:05;29.80;9.20
62904;DHT22;49000;50.698;13.322;2022-08-21T16:23:30;29.70;10.40
62904;DHT22;49000;50.698;13.322;2022-08-21T16:25:58;29.40;9.10
62904;DHT22;49000;50.698;13.322;2022-08-21T16:28:25;28.80;12.90
62904;DHT22;49000;50.698;13.322;2022-08-21T16:30:50;28.30;12.10
62904;DHT22;49000;50.698;13.322;2022-08-21T16:33:38;27.90;13.30
62904;DHT22;49000;50.698;13.322;2022-08-21T16:36:06;27.60;14.20